Time;durP1;ratioP1;P1;durP2;ratioP2;P2;SDS_P1;SDS_P2;PMS_P1;PMS_P2;Temp;Humidity;BMP_temperature;BMP_pressure;BME280_temperature;BME280_humidity;BME280_pressure;Samples;Min_cycle;Max_cycle;Signal;HPM_P1;HPM_P2
2023/04/15 00:00:52;;;;;;;10.88;7.75;;;7.50;88.10;;;;;;5078967;28;20473;-44
2023/04/15 00:03:19;;;;;;;10.50;7.63;;;7.50;88.20;;;;;;5072184;28;20020;-43
2023/04/15 00:05:46;;;;;;;10.32;7.47;;;7.40;88.30;;;;;;5072517;28;20028;-43
2023/04/15 00:08:15;;;;;;;10.25;7.63;;;7.40;88.50;;;;;;5082355;28;20402;-45
2023/04/15 00:10:43;;;;;;;12.07;8.65;;;7.40;88.70;;;;;;5094277;28;20032;-44
2023/04/15 00:13:09;;;;;;;13.10;9.02;;;7.40;88.80;;;;;;5067890;28;20123;-48
2023/04/15 00:15:36;;;;;;;13.32;7.90;;;7.50;88.90;;;;;;5078003;28;20036;-45
2023/04/15 00:18:03;;;;;;;8.63;6.15;;;7.40;88.80;;;;;;5096458;28;20032;-47
2023/04/15 00:20:30;;;;;;;9.38;6.93;;;7.40;88.70;;;;;;5083890;28;20082;-44
2023/04/15 00:22:59;;;;;;;10.80;8.13;;;7.40;88.60;;;;;;5082699;28;20039;-45
2023/04/15 00:25:26;;;;;;;10.27;7.20;;;7.40;88.60;;;;;;5095446;28;20121;-43
2023/04/15 00:27:53;;;;;;;10.38;8.57;;;7.40;88.70;;;;;;5095005;28;20461;-45
2023/04/15 00:30:21;;;;;;;10.90;8.02;;;7.40;88.70;;;;;;5076960;28;20051;-45
2023/04/15 00:32:48;;;;;;;9.73;7.53;;;7.40;88.70;;;;;;5096096;28;20032;-42
2023/04/15 00:35:18;;;;;;;10.68;8.27;;;7.40;88.80;;;;;;5093301;28;20052;-46
2023/04/15 00:37:45;;;;;;;;;;;7.40;88.80;;;;;;5078865;28;20441;-47
2023/04/15 00:40:17;;;;;;;10.00;7.90;;;7.50;88.80;;;;;;5075815;28;19905;-43
2023/04/15 00:42:44;;;;;;;10.57;7.95;;;7.40;88.80;;;;;;5089020;28;20437;-46
2023/04/15 00:45:10;;;;;;;10.13;7.85;;;7.40;88.90;;;;;;5080716;28;20036;-43
2023/04/15 00:47:40;;;;;;;9.13;6.88;;;7.40;88.90;;;;;;5075574;28;20024;-45
2023/04/15 00:50:09;;;;;;;;;;;7.40;89.00;;;;;;5075915;28;20425;-45
2023/04/15 00:52:37;;;;;;;10.85;8.13;;;7.40;89.00;;;;;;5079156;28;19915;-44
2023/04/15 00:55:05;;;;;;;10.10;7.65;;;7.40;89.00;;;;;;5081170;28;20101;-43
2023/04/15 00:57:32;;;;;;;11.10;8.27;;;7.30;89.00;;;;;;5085682;28;20081;-45
2023/04/15 00:59:59;;;;;;;13.98;9.43;;;7.30;89.10;;;;;;5070080;28;20040;-47
2023/04/15 01:02:26;;;;;;;11.38;9.13;;;7.30;89.20;;;;;;5081156;28;20028;-43
2023/04/15 01:04:55;;;;;;;12.85;9.40;;;7.30;89.30;;;;;;5095681;28;20024;-43
2023/04/15 01:07:20;;;;;;;11.13;8.25;;;7.30;89.40;;;;;;5075842;28;20041;-45
2023/04/15 01:09:48;;;;;;;11.32;9.25;;;7.30;89.40;;;;;;5088809;28;20028;-46
2023/04/15 01:12:16;;;;;;;11.30;8.23;;;7.30;89.50;;;;;;5076454;28;20044;-42
2023/04/15 01:14:42;;;;;;;12.88;7.78;;;7.30;89.60;;;;;;5095578;28;20042;-42
2023/04/15 01:17:10;;;;;;;10.70;8.07;;;7.20;89.40;;;;;;5093406;28;20824;-45
2023/04/15 01:19:40;;;;;;;9.60;6.75;;;7.20;89.40;;;;;;5093724;28;20043;-45
2023/04/15 01:22:07;;;;;;;10.73;6.93;;;7.20;89.40;;;;;;5088895;28;20022;-43
2023/04/15 01:24:34;;;;;;;14.32;7.35;;;7.20;89.30;;;;;;5094410;28;20035;-47
2023/04/15 01:27:00;;;;;;;8.18;6.70;;;7.20;89.40;;;;;;5092642;28;20021;-47
2023/04/15 01:29:27;;;;;;;9.77;6.70;;;7.20;89.30;;;;;;5095226;28;20040;-42
2023/04/15 01:31:55;;;;;;;8.32;6.40;;;7.20;89.30;;;;;;5079403;28;20104;-44
2023/04/15 01:34:22;;;;;;;8.45;7.35;;;7.20;89.30;;;;;;5074786;28;20465;-41
2023/04/15 01:36:48;;;;;;;10.52;7.22;;;7.20;89.30;;;;;;5075296;28;20036;-45
2023/04/15 01:39:18;;;;;;;8.75;6.63;;;7.20;89.20;;;;;;5093360;28;20028;-43
2023/04/15 01:41:45;;;;;;;;;;;7.20;89.30;;;;;;5076122;28;20020;-44
2023/04/15 01:44:12;;;;;;;8.68;6.32;;;7.10;89.40;;;;;;5073046;28;19920;-45
2023/04/15 01:46:39;;;;;;;10.95;6.45;;;7.20;89.50;;;;;;5057102;28;20021;-45
2023/04/15 01:49:06;;;;;;;11.65;8.20;;;7.20;89.70;;;;;;5072908;28;20051;-47
2023/04/15 01:51:33;;;;;;;13.30;7.60;;;7.20;89.80;;;;;;5073335;28;20024;-44
2023/04/15 01:54:00;;;;;;;15.32;7.95;;;7.30;89.90;;;;;;5071367;28;20028;-43
2023/04/15 01:56:25;;;;;;;11.52;7.97;;;7.30;90.00;;;;;;5074427;28;20432;-46
2023/04/15 01:58:52;;;;;;;10.82;8.27;;;7.30;90.00;;;;;;5058055;28;20090;-46
2023/04/15 02:01:18;;;;;;;14.48;10.07;;;7.40;90.10;;;;;;5082222;28;20081;-45
2023/04/15 02:03:46;;;;;;;13.23;10.23;;;7.40;90.10;;;;;;5072871;28;20346;-42
2023/04/15 02:06:13;;;;;;;15.02;10.88;;;7.40;89.80;;;;;;5086762;28;20321;-47
2023/04/15 02:08:42;;;;;;;12.75;10.80;;;7.40;89.70;;;;;;5058184;28;20028;-44
2023/04/15 02:11:11;;;;;;;13.68;10.93;;;7.40;89.60;;;;;;5074046;28;20024;-47
2023/04/15 02:13:40;;;;;;;12.63;9.90;;;7.40;89.50;;;;;;5087066;28;20123;-43
2023/04/15 02:16:17;;;;;;;17.02;10.73;;;7.40;89.40;;;;;;5087601;28;20028;-47
2023/04/15 02:18:45;;;;;;;16.20;11.25;;;7.50;89.50;;;;;;5073714;28;20035;-43
2023/04/15 02:21:15;;;;;;;13.13;10.70;;;7.50;89.60;;;;;;5074047;28;20111;-41
2023/04/15 02:23:42;;;;;;;;;;;7.50;89.70;;;;;;5091617;28;20024;-43
2023/04/15 02:26:09;;;;;;;12.32;9.38;;;7.50;89.60;;;;;;5094476;28;19951;-43
2023/04/15 02:28:37;;;;;;;17.45;10.50;;;7.50;89.70;;;;;;5091666;28;20032;-47
2023/04/15 02:31:08;;;;;;;13.02;10.18;;;7.50;89.90;;;;;;5067574;28;20077;-42
2023/04/15 02:33:35;;;;;;;13.95;10.77;;;7.50;90.00;;;;;;5085841;28;20048;-44
2023/04/15 02:36:03;;;;;;;12.32;8.93;;;7.40;89.90;;;;;;5074837;28;20100;-43
2023/04/15 02:38:30;;;;;;;11.75;8.90;;;7.30;89.60;;;;;;5091765;28;20354;-46
2023/04/15 02:40:57;;;;;;;11.07;8.45;;;7.20;89.50;;;;;;5092986;28;20032;-43
2023/04/15 02:43:25;;;;;;;14.05;9.68;;;7.20;89.60;;;;;;5089936;28;20021;-44
2023/04/15 02:45:52;;;;;;;11.82;9.25;;;7.10;89.50;;;;;;5069101;28;20025;-46
2023/04/15 02:48:19;;;;;;;12.27;9.43;;;7.10;89.70;;;;;;5092979;28;20078;-45
2023/04/15 02:50:48;;;;;;;12.23;8.57;;;7.10;89.90;;;;;;5092186;28;20032;-43
2023/04/15 02:53:14;;;;;;;12.38;8.05;;;7.10;90.10;;;;;;5073727;28;20058;-45
2023/04/15 02:55:41;;;;;;;11.80;8.07;;;7.10;90.20;;;;;;5076481;28;20083;-45
2023/04/15 02:58:07;;;;;;;11.63;8.07;;;7.10;90.30;;;;;;5061378;28;20081;-42
2023/04/15 03:00:34;;;;;;;12.52;9.10;;;7.10;90.40;;;;;;5073477;28;20095;-43
2023/04/15 03:03:05;;;;;;;12.95;8.77;;;7.10;90.30;;;;;;5055212;28;20024;-44
2023/04/15 03:05:34;;;;;;;14.18;9.60;;;7.00;90.30;;;;;;5078127;28;20378;-42
2023/04/15 03:08:00;;;;;;;13.03;9.60;;;7.00;90.20;;;;;;5085713;28;20457;-44
2023/04/15 03:10:28;;;;;;;12.57;9.52;;;7.00;90.20;;;;;;5084477;28;20297;-43
2023/04/15 03:12:55;;;;;;;15.07;10.70;;;7.00;90.20;;;;;;5076440;28;20044;-42
2023/04/15 03:15:22;;;;;;;13.77;10.88;;;6.90;90.20;;;;;;5085846;28;20043;-42
2023/04/15 03:17:49;;;;;;;13.32;8.90;;;6.90;90.30;;;;;;5072600;28;20107;-43
2023/04/15 03:20:19;;;;;;;14.25;8.57;;;6.90;90.40;;;;;;5076414;28;20031;-47
2023/04/15 03:22:46;;;;;;;11.65;8.27;;;6.90;90.50;;;;;;5054924;28;20028;-45
2023/04/15 03:25:13;;;;;;;11.60;8.18;;;6.90;90.70;;;;;;5061925;28;20028;-45
2023/04/15 03:27:40;;;;;;;15.00;9.77;;;6.90;90.80;;;;;;5068470;28;20539;-43
2023/04/15 03:30:07;;;;;;;16.63;10.85;;;6.90;90.90;;;;;;5091571;28;20070;-48
2023/04/15 03:32:35;;;;;;;17.02;12.13;;;6.90;91.00;;;;;;5087352;28;20081;-43
2023/04/15 03:35:02;;;;;;;18.23;12.73;;;6.90;91.20;;;;;;5090767;28;20105;-44
2023/04/15 03:37:30;;;;;;;16.85;11.95;;;6.90;91.20;;;;;;5091770;28;20028;-45
2023/04/15 03:39:57;;;;;;;18.05;10.93;;;7.00;91.30;;;;;;5092557;28;20035;-44
2023/04/15 03:42:23;;;;;;;16.85;12.38;;;6.90;91.30;;;;;;5070591;28;20035;-46
2023/04/15 03:44:51;;;;;;;16.17;11.02;;;7.00;91.40;;;;;;5060183;28;20476;-46
2023/04/15 03:47:16;;;;;;;17.10;10.90;;;7.00;91.40;;;;;;5087145;28;20024;-49
2023/04/15 03:49:43;;;;;;;16.33;10.05;;;7.00;91.40;;;;;;5072574;28;20035;-48
2023/04/15 03:52:10;;;;;;;16.50;11.73;;;7.00;91.50;;;;;;5086962;28;20126;-43
2023/04/15 03:54:37;;;;;;;24.65;12.40;;;7.00;91.50;;;;;;5072030;28;20036;-44
2023/04/15 03:57:02;;;;;;;18.10;11.70;;;7.10;91.60;;;;;;5072571;28;20098;-45
2023/04/15 03:59:29;;;;;;;18.13;12.45;;;7.20;91.60;;;;;;5073757;28;20045;-47
2023/04/15 04:01:56;;;;;;;17.10;12.82;;;7.20;91.50;;;;;;5080772;28;20409;-48
2023/04/15 04:04:23;;;;;;;15.88;11.80;;;7.20;91.40;;;;;;5084821;28;20475;-44
2023/04/15 04:06:52;;;;;;;19.38;11.40;;;7.10;91.40;;;;;;5083986;28;20035;-46
2023/04/15 04:09:18;;;;;;;19.25;12.77;;;7.10;91.40;;;;;;5088061;28;20032;-43
2023/04/15 04:11:44;;;;;;;19.13;13.48;;;7.00;91.40;;;;;;5073379;28;20064;-44
2023/04/15 04:14:11;;;;;;;15.80;11.40;;;7.00;91.40;;;;;;5091102;28;20798;-45
2023/04/15 04:16:37;;;;;;;16.00;11.50;;;7.00;91.40;;;;;;5077908;28;20095;-47
2023/04/15 04:19:06;;;;;;;18.70;11.77;;;7.00;91.40;;;;;;5071762;28;20025;-45
2023/04/15 04:21:38;;;;;;;13.70;11.32;;;7.00;91.50;;;;;;5077484;28;20338;-42
2023/04/15 04:24:09;;;;;;;15.43;10.95;;;7.00;91.40;;;;;;5072116;28;20303;-47
2023/04/15 04:26:36;;;;;;;13.40;10.57;;;7.00;91.40;;;;;;5073110;28;20024;-43
2023/04/15 04:29:03;;;;;;;14.15;10.55;;;7.00;91.30;;;;;;5086134;28;20044;-46
2023/04/15 04:31:30;;;;;;;15.48;10.48;;;7.10;91.40;;;;;;5085187;28;20477;-43
2023/04/15 04:33:58;;;;;;;18.08;11.77;;;7.10;91.40;;;;;;5072979;28;20040;-45
2023/04/15 04:36:25;;;;;;;12.63;11.20;;;7.10;91.50;;;;;;5088689;28;20949;-47
2023/04/15 04:38:52;;;;;;;16.55;11.32;;;7.10;91.40;;;;;;5088438;28;20116;-43
2023/04/15 04:41:19;;;;;;;15.88;11.77;;;7.20;91.60;;;;;;5058701;28;20394;-43
2023/04/15 04:43:46;;;;;;;16.65;12.32;;;7.20;91.60;;;;;;5071801;28;20028;-43
2023/04/15 04:46:13;;;;;;;17.20;12.23;;;7.30;91.60;;;;;;5087960;28;20032;-45
2023/04/15 04:48:40;;;;;;;17.58;13.55;;;7.30;91.80;;;;;;5088848;28;20103;-45
2023/04/15 04:51:07;;;;;;;19.30;13.15;;;7.40;91.80;;;;;;5084620;28;20123;-45
2023/04/15 04:53:34;;;;;;;19.15;14.57;;;7.40;91.90;;;;;;5073002;28;20024;-46
2023/04/15 04:56:01;;;;;;;23.58;15.60;;;7.40;92.00;;;;;;5071818;28;20029;-43
2023/04/15 04:58:29;;;;;;;22.48;15.13;;;7.40;92.00;;;;;;5078695;28;20066;-43
2023/04/15 05:00:56;;;;;;;19.27;14.57;;;7.40;92.10;;;;;;5080344;28;20043;-46
2023/04/15 05:03:23;;;;;;;22.48;15.18;;;7.40;92.10;;;;;;5067316;28;20028;-43
2023/04/15 05:05:50;;;;;;;19.90;15.07;;;7.50;92.10;;;;;;5083514;28;20099;-45
2023/04/15 05:08:16;;;;;;;20.25;13.57;;;7.50;92.00;;;;;;5085711;28;20501;-44
2023/04/15 05:10:43;;;;;;;18.55;13.30;;;7.50;92.10;;;;;;5081919;28;20044;-47
2023/04/15 05:13:12;;;;;;;21.00;13.88;;;7.40;92.00;;;;;;5083379;28;20072;-43
2023/04/15 05:15:42;;;;;;;19.58;15.18;;;7.50;92.10;;;;;;5078914;28;20032;-44
2023/04/15 05:18:07;;;;;;;18.35;14.10;;;7.50;92.10;;;;;;5089530;28;20090;-46
2023/04/15 05:20:33;;;;;;;23.80;14.32;;;7.50;92.10;;;;;;5080408;28;20028;-44
2023/04/15 05:23:03;;;;;;;19.30;13.30;;;7.50;92.20;;;;;;5074670;28;20024;-45
2023/04/15 05:25:31;;;;;;;22.55;13.43;;;7.60;92.20;;;;;;5079273;28;20032;-43
2023/04/15 05:27:58;;;;;;;15.82;10.02;;;7.60;92.20;;;;;;5078762;28;20039;-44
2023/04/15 05:30:24;;;;;;;13.85;10.10;;;7.60;92.20;;;;;;5092830;28;22150;-48
2023/04/15 05:32:51;;;;;;;18.02;10.60;;;7.70;92.20;;;;;;5074665;28;20032;-44
2023/04/15 05:35:18;;;;;;;14.90;10.75;;;7.70;92.30;;;;;;5093930;28;20031;-43
2023/04/15 05:37:45;;;;;;;17.75;11.88;;;7.70;92.20;;;;;;5077263;28;20316;-47
2023/04/15 05:40:13;;;;;;;19.85;11.57;;;7.80;92.20;;;;;;5074643;28;20016;-44
2023/04/15 05:42:40;;;;;;;15.35;10.73;;;7.70;92.20;;;;;;5074635;28;20039;-43
2023/04/15 05:45:08;;;;;;;15.65;10.70;;;7.80;92.20;;;;;;5092422;28;20024;-44
2023/04/15 05:47:37;;;;;;;18.40;10.68;;;7.80;92.20;;;;;;5088271;28;20029;-47
2023/04/15 05:50:05;;;;;;;20.67;12.83;;;7.80;92.20;;;;;;5087831;28;20074;-46
2023/04/15 05:52:34;;;;;;;16.70;10.38;;;7.80;92.20;;;;;;5067385;28;20290;-46
2023/04/15 05:55:01;;;;;;;18.20;9.77;;;7.80;92.10;;;;;;5070160;28;20039;-43
2023/04/15 05:57:30;;;;;;;15.68;10.70;;;7.80;92.20;;;;;;5088820;28;20102;-43
2023/04/15 06:00:00;;;;;;;15.38;9.95;;;7.80;92.10;;;;;;5091922;28;20107;-47
2023/04/15 06:02:27;;;;;;;19.10;10.18;;;7.80;92.10;;;;;;5060778;28;20025;-45
2023/04/15 06:04:53;;;;;;;17.63;10.02;;;7.90;92.20;;;;;;5073875;28;20107;-45
2023/04/15 06:07:20;;;;;;;16.55;9.90;;;7.90;92.20;;;;;;5078403;28;20111;-45
2023/04/15 06:09:49;;;;;;;17.52;10.45;;;7.80;92.20;;;;;;5079406;28;20381;-45
2023/04/15 06:12:16;;;;;;;13.82;10.45;;;7.90;92.30;;;;;;5084966;28;20473;-43
2023/04/15 06:14:43;;;;;;;17.23;10.10;;;7.90;92.30;;;;;;5063274;28;20102;-43
2023/04/15 06:17:09;;;;;;;17.17;9.38;;;7.90;92.30;;;;;;5074730;28;20042;-48
2023/04/15 06:19:36;;;;;;;19.08;9.88;;;7.90;92.30;;;;;;5084619;28;20032;-45
2023/04/15 06:22:05;;;;;;;18.85;10.30;;;7.90;92.20;;;;;;5080225;28;20093;-45
2023/04/15 06:24:32;;;;;;;17.02;9.25;;;8.00;92.30;;;;;;5084832;28;20111;-44
2023/04/15 06:26:58;;;;;;;15.02;9.48;;;8.00;92.30;;;;;;5081788;28;20406;-43
2023/04/15 06:29:25;;;;;;;17.08;8.63;;;7.90;92.20;;;;;;5078603;28;20035;-44
2023/04/15 06:31:52;;;;;;;15.75;9.52;;;8.00;92.20;;;;;;5080255;28;20060;-46
2023/04/15 06:34:19;;;;;;;20.05;12.25;;;8.00;92.20;;;;;;5081761;28;20032;-44
2023/04/15 06:36:45;;;;;;;17.33;8.52;;;8.00;92.10;;;;;;5078602;28;20139;-44
2023/04/15 06:39:12;;;;;;;19.77;8.93;;;8.00;92.20;;;;;;5076944;28;20035;-43
2023/04/15 06:41:43;;;;;;;13.15;9.00;;;7.90;92.10;;;;;;5082458;28;20453;-44
2023/04/15 06:44:10;;;;;;;13.77;8.68;;;7.90;92.10;;;;;;5082156;28;20028;-46
2023/04/15 06:46:37;;;;;;;16.73;9.20;;;7.90;92.10;;;;;;5064810;28;20028;-44
2023/04/15 06:49:04;;;;;;;12.55;8.48;;;8.00;92.20;;;;;;5084886;28;20039;-45
2023/04/15 06:51:31;;;;;;;15.73;10.07;;;8.00;92.10;;;;;;5080328;28;20028;-43
2023/04/15 06:53:58;;;;;;;23.58;8.75;;;8.10;92.20;;;;;;5084380;28;20089;-47
2023/04/15 06:56:27;;;;;;;16.75;9.13;;;8.20;92.30;;;;;;5059179;28;20036;-42
2023/04/15 06:58:54;;;;;;;19.17;8.75;;;8.20;92.30;;;;;;5079601;28;20779;-43
2023/04/15 07:01:21;;;;;;;15.10;8.25;;;8.20;91.90;;;;;;5082541;28;20429;-44
2023/04/15 07:03:47;;;;;;;14.30;8.23;;;8.20;92.10;;;;;;5081744;28;20467;-45
2023/04/15 07:06:20;;;;;;;14.80;8.60;;;8.20;92.20;;;;;;5054562;28;20016;-47
2023/04/15 07:08:48;;;;;;;15.30;7.63;;;8.30;92.10;;;;;;5090905;28;20024;-50
2023/04/15 07:11:16;;;;;;;12.23;7.00;;;8.20;92.20;;;;;;5063460;28;20040;-48
2023/04/15 07:13:43;;;;;;;15.25;8.63;;;8.20;92.40;;;;;;5072894;28;20052;-48
2023/04/15 07:16:10;;;;;;;11.95;8.25;;;8.20;92.50;;;;;;5075287;28;20063;-51
2023/04/15 07:18:36;;;;;;;12.27;7.97;;;8.10;92.60;;;;;;5054631;28;20438;-49
2023/04/15 07:21:04;;;;;;;11.35;8.13;;;8.10;92.70;;;;;;5072608;28;20039;-49
2023/04/15 07:23:32;;;;;;;12.38;8.07;;;8.10;92.80;;;;;;5073501;28;20034;-52
2023/04/15 07:26:00;;;;;;;14.75;7.97;;;8.10;92.90;;;;;;5059608;28;20028;-50
2023/04/15 07:28:26;;;;;;;14.23;8.45;;;8.10;93.10;;;;;;5071980;28;20052;-48
2023/04/15 07:30:52;;;;;;;15.88;8.68;;;8.20;93.20;;;;;;5074996;28;20428;-52
2023/04/15 07:33:22;;;;;;;15.52;8.50;;;8.20;93.20;;;;;;5092582;28;20103;-52
2023/04/15 07:35:49;;;;;;;16.23;8.80;;;8.20;93.20;;;;;;5092749;28;20372;-48
2023/04/15 07:38:16;;;;;;;15.10;7.78;;;8.20;93.10;;;;;;5084015;28;20114;-52
2023/04/15 07:40:43;;;;;;;15.63;8.73;;;8.10;93.20;;;;;;5072261;28;20051;-54
2023/04/15 07:43:12;;;;;;;17.02;10.30;;;8.10;93.30;;;;;;5088757;28;20043;-50
2023/04/15 07:45:39;;;;;;;16.95;9.85;;;8.10;93.30;;;;;;5089186;28;20024;-49
2023/04/15 07:48:08;;;;;;;13.68;9.35;;;8.10;93.30;;;;;;5072873;28;20330;-48
2023/04/15 07:50:37;;;;;;;15.57;9.40;;;8.10;93.30;;;;;;5054860;28;20354;-48
2023/04/15 07:53:03;;;;;;;15.18;9.05;;;8.00;93.40;;;;;;5054959;28;20736;-48
2023/04/15 07:55:32;;;;;;;18.42;9.90;;;8.00;93.40;;;;;;5077913;28;20047;-47
2023/04/15 07:58:01;;;;;;;12.68;8.02;;;8.10;93.50;;;;;;5077569;28;20029;-47
2023/04/15 08:00:28;;;;;;;16.10;8.85;;;7.90;93.50;;;;;;5080823;28;20062;-48
2023/04/15 08:02:58;;;;;;;15.27;8.15;;;7.90;93.50;;;;;;5053965;28;20020;-53
2023/04/15 08:05:24;;;;;;;18.20;8.98;;;8.00;93.60;;;;;;5072521;28;20127;-54
2023/04/15 08:07:51;;;;;;;20.98;10.18;;;8.00;93.70;;;;;;5076118;28;20465;-54
2023/04/15 08:10:18;;;;;;;14.43;8.80;;;8.10;93.60;;;;;;5080802;28;20033;-53
2023/04/15 08:12:47;;;;;;;19.27;8.45;;;8.10;93.60;;;;;;5054106;28;20055;-55
2023/04/15 08:15:14;;;;;;;23.77;11.00;;;8.10;93.60;;;;;;5054438;28;20112;-55
2023/04/15 08:17:40;;;;;;;15.85;8.15;;;8.10;93.70;;;;;;5085916;28;20043;-56
2023/04/15 08:20:10;;;;;;;14.82;10.00;;;8.00;93.50;;;;;;5075975;28;20036;-52
2023/04/15 08:22:37;;;;;;;18.77;10.63;;;8.10;93.60;;;;;;5080597;28;20025;-52
2023/04/15 08:25:04;;;;;;;13.63;7.68;;;8.10;93.60;;;;;;5066452;28;20755;-52
2023/04/15 08:27:33;;;;;;;14.18;7.75;;;8.10;93.60;;;;;;5084523;28;20024;-53
2023/04/15 08:30:02;;;;;;;12.32;8.13;;;8.20;93.60;;;;;;5092064;28;20036;-54
2023/04/15 08:32:30;;;;;;;12.07;6.32;;;8.20;93.60;;;;;;5081977;28;20028;-57
2023/04/15 08:34:59;;;;;;;12.68;7.13;;;8.20;93.60;;;;;;5065012;28;20123;-55
2023/04/15 08:37:26;;;;;;;13.47;7.90;;;8.20;93.70;;;;;;5082105;28;20551;-51
2023/04/15 08:39:53;;;;;;;13.95;8.20;;;8.20;93.70;;;;;;5094125;28;20097;-52
2023/04/15 08:42:30;;;;;;;13.85;7.72;;;8.10;93.60;;;;;;5090984;28;20032;-54
2023/04/15 08:45:01;;;;;;;13.73;7.65;;;8.20;93.70;;;;;;5076837;28;20030;-54
2023/04/15 08:47:30;;;;;;;16.63;7.85;;;8.20;93.70;;;;;;5079281;28;20411;-51
2023/04/15 08:49:58;;;;;;;13.55;8.85;;;8.20;93.70;;;;;;5086091;28;20035;-53
2023/04/15 08:52:28;;;;;;;11.30;6.90;;;8.20;93.70;;;;;;5075966;28;20051;-52
2023/04/15 08:55:00;;;;;;;12.73;8.07;;;8.20;93.60;;;;;;5075950;28;20036;-50
2023/04/15 08:57:31;;;;;;;11.00;7.25;;;8.20;93.60;;;;;;5079973;28;20116;-54
2023/04/15 08:59:58;;;;;;;17.45;8.02;;;8.20;93.60;;;;;;5080298;28;20078;-53
2023/04/15 09:02:26;;;;;;;13.23;7.40;;;8.20;93.80;;;;;;5088731;28;20024;-57
2023/04/15 09:04:52;;;;;;;16.50;7.60;;;8.20;93.60;;;;;;5087664;28;20791;-55
2023/04/15 09:07:19;;;;;;;11.98;7.57;;;8.30;93.60;;;;;;5084638;28;20032;-56
2023/04/15 09:09:47;;;;;;;11.45;6.15;;;8.40;93.70;;;;;;5082840;28;20050;-56
2023/04/15 09:12:13;;;;;;;11.50;6.80;;;8.30;93.50;;;;;;5074730;28;20040;-57
2023/04/15 09:14:40;;;;;;;14.93;7.85;;;8.20;93.50;;;;;;5071464;28;20457;-55
2023/04/15 09:17:10;;;;;;;15.15;8.10;;;8.30;93.70;;;;;;5079734;28;20107;-57
2023/04/15 09:19:40;;;;;;;16.35;7.47;;;8.30;93.60;;;;;;5076913;28;20401;-58
2023/04/15 09:22:07;;;;;;;17.55;7.63;;;8.20;93.60;;;;;;5088319;28;20437;-57
2023/04/15 09:24:38;;;;;;;12.73;7.75;;;8.30;93.70;;;;;;5070229;28;20028;-55
2023/04/15 09:27:06;;;;;;;14.65;8.57;;;8.30;93.60;;;;;;5074779;28;20032;-57
2023/04/15 09:29:32;;;;;;;11.75;6.97;;;8.30;93.80;;;;;;5074641;28;20521;-56
2023/04/15 09:32:12;;;;;;;15.02;6.90;;;8.30;93.70;;;;;;5080491;28;20358;-56
2023/04/15 09:34:39;;;;;;;15.02;8.18;;;8.30;93.70;;;;;;5058962;28;20036;-56
2023/04/15 09:37:09;;;;;;;14.23;6.90;;;8.30;93.60;;;;;;5089615;28;20032;-55
2023/04/15 09:39:50;;;;;;;12.15;6.88;;;8.20;93.50;;;;;;5076806;28;20098;-57
2023/04/15 09:42:22;;;;;;;13.80;5.70;;;8.30;93.80;;;;;;5074433;28;20028;-57
2023/04/15 09:45:06;;;;;;;15.65;5.57;;;8.30;93.70;;;;;;5081482;28;20024;-55
2023/04/15 09:47:33;;;;;;;11.40;5.93;;;8.30;93.80;;;;;;5056838;28;20400;-54
2023/04/15 09:50:01;;;;;;;11.65;5.82;;;8.40;93.80;;;;;;5074436;28;20028;-54
2023/04/15 09:52:28;;;;;;;11.55;5.63;;;8.20;93.60;;;;;;5084289;28;20539;-52
2023/04/15 09:54:59;;;;;;;12.43;5.65;;;8.20;93.70;;;;;;5071323;28;20036;-56
2023/04/15 09:57:36;;;;;;;12.95;5.95;;;8.20;93.70;;;;;;5056061;28;20029;-57
2023/04/15 10:00:08;;;;;;;11.85;4.93;;;8.20;93.80;;;;;;5088753;28;20123;-55
2023/04/15 10:02:36;;;;;;;12.27;5.03;;;8.10;93.70;;;;;;5073962;28;20039;-57
2023/04/15 10:05:03;;;;;;;16.67;6.00;;;8.00;93.80;;;;;;5079134;28;20051;-56
2023/04/15 10:07:31;;;;;;;12.75;5.38;;;8.10;94.00;;;;;;5081100;28;20063;-58
2023/04/15 10:10:01;;;;;;;14.70;5.43;;;8.10;94.00;;;;;;5073909;28;20021;-59
2023/04/15 10:12:28;;;;;;;17.05;5.72;;;8.20;94.10;;;;;;5073567;28;20546;-59
2023/04/15 10:15:07;;;;;;;13.02;5.30;;;8.20;94.10;;;;;;5066832;28;20066;-52
2023/04/15 10:17:36;;;;;;;12.20;5.75;;;8.20;94.00;;;;;;5086628;28;20029;-54
2023/04/15 10:20:05;;;;;;;11.93;4.70;;;8.20;94.00;;;;;;5089222;28;20035;-54
2023/04/15 10:22:32;;;;;;;9.07;5.20;;;8.20;94.00;;;;;;5087707;28;20020;-57
2023/04/15 10:25:01;;;;;;;12.45;5.70;;;8.20;94.00;;;;;;5093625;28;20020;-56
2023/04/15 10:27:37;;;;;;;15.80;5.43;;;8.20;94.00;;;;;;5068705;28;20059;-55
2023/04/15 10:30:05;;;;;;;12.85;5.40;;;8.20;94.10;;;;;;5074488;28;20029;-55
2023/04/15 10:32:31;;;;;;;10.25;4.90;;;8.20;94.00;;;;;;5093024;28;20342;-55
2023/04/15 10:35:00;;;;;;;18.73;5.85;;;8.30;94.10;;;;;;5090378;28;20032;-54
2023/04/15 10:37:37;;;;;;;11.10;4.87;;;8.20;93.90;;;;;;5079666;28;20032;-54
2023/04/15 10:40:46;;;;;;;19.80;5.40;;;8.20;94.00;;;;;;5072630;28;20285;-53
2023/04/15 10:43:25;;;;;;;11.43;4.30;;;8.30;94.10;;;;;;5073200;28;20036;-57
2023/04/15 10:45:53;;;;;;;14.27;5.43;;;8.30;93.90;;;;;;5077505;28;20554;-54
2023/04/15 10:48:19;;;;;;;14.63;6.45;;;8.30;94.10;;;;;;5071062;28;20059;-49
2023/04/15 10:51:03;;;;;;;10.50;5.30;;;8.20;93.90;;;;;;5082929;28;20056;-49
2023/04/15 10:53:30;;;;;;;16.55;5.70;;;8.20;94.10;;;;;;5085026;28;20115;-54
2023/04/15 10:55:58;;;;;;;14.20;6.43;;;8.20;94.00;;;;;;5078752;28;20033;-50
2023/04/15 10:58:32;;;;;;;15.05;5.93;;;8.20;94.10;;;;;;5072546;28;20089;-57
2023/04/15 11:01:01;;;;;;;15.77;5.60;;;8.20;94.10;;;;;;5066881;28;20032;-57
2023/04/15 11:03:37;;;;;;;9.13;4.60;;;8.20;94.20;;;;;;5093035;28;20028;-53
2023/04/15 11:06:06;;;;;;;16.13;5.60;;;8.20;94.10;;;;;;5068449;28;20032;-53
2023/04/15 11:09:04;;;;;;;15.32;5.85;;;8.20;94.20;;;;;;5082182;28;20369;-58
2023/04/15 11:12:08;;;;;;;10.50;6.60;;;8.20;94.20;;;;;;5091531;28;20039;-58
2023/04/15 11:14:46;;;;;;;15.23;6.53;;;8.10;94.20;;;;;;5072395;28;20162;-58
2023/04/15 11:17:15;;;;;;;13.20;6.82;;;8.10;94.30;;;;;;5064272;28;20117;-59
2023/04/15 11:19:43;;;;;;;10.57;6.35;;;8.10;94.40;;;;;;5040345;28;20033;-55
2023/04/15 11:22:11;;;;;;;14.50;5.75;;;8.10;94.30;;;;;;5056839;28;20029;-57
2023/04/15 11:24:49;;;;;;;16.73;5.97;;;8.10;94.40;;;;;;5052028;28;20017;-56
2023/04/15 11:27:28;;;;;;;10.32;6.10;;;8.10;94.50;;;;;;5051880;28;20020;-50
2023/04/15 11:29:55;;;;;;;11.63;6.40;;;8.10;94.50;;;;;;5052151;28;20025;-50
2023/04/15 11:32:24;;;;;;;12.13;6.50;;;8.10;94.50;;;;;;5065949;28;20064;-55
2023/04/15 11:34:51;;;;;;;13.13;5.95;;;8.00;94.50;;;;;;5058822;28;20047;-53
2023/04/15 11:37:26;;;;;;;15.73;7.03;;;8.10;94.60;;;;;;5056567;28;20047;-58
2023/04/15 11:39:54;;;;;;;15.60;7.18;;;8.10;94.60;;;;;;5052102;28;20455;-55
2023/04/15 11:42:20;;;;;;;18.00;8.18;;;8.00;94.60;;;;;;5052035;28;20032;-56
2023/04/15 11:44:46;;;;;;;18.00;9.07;;;8.10;94.70;;;;;;5054353;28;20012;-52
2023/04/15 11:47:26;;;;;;;18.33;8.52;;;8.10;94.70;;;;;;5053868;28;20060;-51
2023/04/15 11:49:52;;;;;;;18.25;9.45;;;8.20;94.80;;;;;;5063928;28;20465;-53
2023/04/15 11:52:20;;;;;;;19.92;9.70;;;8.20;94.70;;;;;;5062137;28;20033;-52
2023/04/15 11:54:49;;;;;;;23.05;10.18;;;8.20;94.80;;;;;;5050860;28;20029;-52
2023/04/15 11:57:15;;;;;;;20.20;11.33;;;8.20;94.90;;;;;;5071244;28;20024;-51
2023/04/15 11:59:43;;;;;;;18.25;10.02;;;8.30;94.90;;;;;;5036731;28;20111;-51
2023/04/15 12:02:13;;;;;;;21.08;11.07;;;8.40;95.00;;;;;;5062950;28;20162;-50
2023/04/15 12:04:40;;;;;;;21.75;10.88;;;8.40;95.00;;;;;;5057708;28;20033;-51
2023/04/15 12:07:07;;;;;;;26.05;12.20;;;8.50;94.90;;;;;;5066805;28;20052;-51
2023/04/15 12:09:37;;;;;;;21.05;10.27;;;8.40;94.80;;;;;;5069171;28;20400;-51
2023/04/15 12:12:03;;;;;;;18.85;9.57;;;8.50;94.80;;;;;;5071434;28;20036;-50
2023/04/15 12:14:31;;;;;;;23.48;11.05;;;8.40;94.80;;;;;;5076228;28;20028;-54
2023/04/15 12:17:05;;;;;;;25.33;10.40;;;8.50;94.80;;;;;;5058918;28;20032;-49
2023/04/15 12:19:55;;;;;;;19.48;11.05;;;8.50;94.80;;;;;;5079693;28;20082;-51
2023/04/15 12:22:24;;;;;;;21.73;10.93;;;8.40;94.80;;;;;;5086295;28;20029;-48
2023/04/15 12:24:56;;;;;;;21.58;11.40;;;8.50;94.80;;;;;;5076274;28;20354;-48
2023/04/15 12:27:26;;;;;;;23.98;11.65;;;8.50;94.80;;;;;;5077277;28;20028;-51
2023/04/15 12:30:06;;;;;;;26.98;11.20;;;8.50;94.90;;;;;;5077259;28;20032;-51
2023/04/15 12:32:35;;;;;;;23.55;11.02;;;8.50;94.80;;;;;;5094436;28;20028;-47
2023/04/15 12:35:02;;;;;;;21.88;12.25;;;8.60;94.80;;;;;;5093232;28;20024;-47
2023/04/15 12:37:29;;;;;;;25.20;11.77;;;8.50;94.80;;;;;;5092700;28;20098;-49
2023/04/15 12:39:56;;;;;;;24.50;10.90;;;8.50;94.80;;;;;;5095098;28;20106;-49
2023/04/15 12:42:26;;;;;;;32.40;12.73;;;8.50;94.80;;;;;;5077119;28;20401;-48
2023/04/15 12:44:53;;;;;;;29.27;12.23;;;8.50;94.90;;;;;;5076031;28;20025;-46
2023/04/15 12:47:20;;;;;;;34.58;14.18;;;8.50;94.90;;;;;;5092991;28;20027;-47
2023/04/15 12:49:48;;;;;;;29.67;12.98;;;8.50;94.80;;;;;;5094606;28;20381;-49
2023/04/15 12:52:15;;;;;;;39.75;14.05;;;8.50;94.90;;;;;;5089357;28;20027;-48